Time;durP1;ratioP1;P1;durP2;ratioP2;P2;SDS_P1;SDS_P2;PMS_P1;PMS_P2;Temp;Humidity;BMP_temperature;BMP_pressure;BME280_temperature;BME280_humidity;BME280_pressure;Samples;Min_cycle;Max_cycle;Signal;HPM_P1;HPM_P2
2022/11/03 00:00:32;;;;;;;0.20;0.20;;;9.60;99.90;;;;;;5017770;28;20480;-77
2022/11/03 00:02:58;;;;;;;0.20;0.20;;;9.50;99.90;;;;;;5017268;28;20029;-77
2022/11/03 00:08:08;;;;;;;0.20;0.20;;;9.30;99.90;;;;;;5017200;28;20061;-77
2022/11/03 00:10:34;;;;;;;0.10;0.10;;;9.30;99.90;;;;;;5017205;28;20414;-77
2022/11/03 00:13:00;;;;;;;0.20;0.20;;;9.50;99.90;;;;;;5034795;28;20029;-77
2022/11/03 00:15:25;;;;;;;0.10;0.10;;;9.40;99.90;;;;;;5016986;28;20496;-77
2022/11/03 00:17:51;;;;;;;0.20;0.20;;;9.30;99.90;;;;;;5017130;28;20025;-77
2022/11/03 00:20:17;;;;;;;0.10;0.10;;;9.30;99.90;;;;;;5017011;28;20079;-77
2022/11/03 00:22:42;;;;;;;0.70;0.70;;;9.10;99.90;;;;;;5016741;28;20026;-77
2022/11/03 00:25:08;;;;;;;0.20;0.20;;;9.20;99.90;;;;;;5016733;28;20469;-77
2022/11/03 00:27:34;;;;;;;0.20;0.20;;;9.10;99.90;;;;;;5017004;28;20022;-77
2022/11/03 00:30:00;;;;;;;0.30;0.30;;;9.30;99.90;;;;;;5000644;28;20034;-77
2022/11/03 00:32:25;;;;;;;0.30;0.30;;;9.30;99.90;;;;;;5034675;28;20030;-77
2022/11/03 00:34:51;;;;;;;0.20;0.20;;;9.30;99.90;;;;;;5016624;28;20033;-77
2022/11/03 00:37:17;;;;;;;0.20;0.20;;;9.10;99.90;;;;;;5034071;28;20121;-77
2022/11/03 00:39:42;;;;;;;0.20;0.20;;;8.90;99.90;;;;;;5000225;28;20397;-77
2022/11/03 00:42:08;;;;;;;0.20;0.20;;;8.60;99.90;;;;;;5016178;28;20041;-77
2022/11/03 00:44:34;;;;;;;2.13;2.03;;;8.40;99.90;;;;;;5016153;28;20033;-77
2022/11/03 00:47:00;;;;;;;0.20;0.20;;;8.40;99.90;;;;;;5016197;28;20449;-77
2022/11/03 00:49:25;;;;;;;0.20;0.20;;;8.30;99.90;;;;;;5033939;28;20045;-75
2022/11/03 00:51:51;;;;;;;0.20;0.20;;;8.30;99.90;;;;;;5033742;28;20068;-75
2022/11/03 00:54:17;;;;;;;0.20;0.20;;;8.20;99.90;;;;;;4999711;28;20448;-75
2022/11/03 00:56:43;;;;;;;0.25;0.25;;;8.20;99.90;;;;;;5033530;28;20033;-75
2022/11/03 00:59:09;;;;;;;0.17;0.17;;;8.30;99.90;;;;;;5015972;28;20060;-75
2022/11/03 01:01:41;;;;;;;0.20;0.20;;;8.40;99.90;;;;;;5015900;28;20481;-75
2022/11/03 01:06:55;;;;;;;0.10;0.10;;;8.70;99.90;;;;;;5015515;28;20088;-75
2022/11/03 01:09:30;;;;;;;0.10;0.10;;;8.80;99.90;;;;;;5015844;28;20037;-75
2022/11/03 01:12:02;;;;;;;0.20;0.20;;;8.60;99.90;;;;;;5033473;28;20056;-75
2022/11/03 01:14:34;;;;;;;0.20;0.20;;;8.50;99.90;;;;;;5015571;28;20087;-75
2022/11/03 01:17:03;;;;;;;0.20;0.20;;;8.40;99.90;;;;;;5033150;28;20385;-75
2022/11/03 01:19:28;;;;;;;0.10;0.10;;;8.10;99.90;;;;;;5015491;28;20026;-75
2022/11/03 01:21:54;;;;;;;0.38;0.38;;;8.00;99.90;;;;;;5033189;28;20546;-75
2022/11/03 01:24:20;;;;;;;0.20;0.20;;;7.90;99.90;;;;;;5033060;28;20394;-75
2022/11/03 01:26:46;;;;;;;1.65;1.55;;;7.80;99.90;;;;;;5015216;28;20104;-75
2022/11/03 01:29:12;;;;;;;0.22;0.22;;;7.90;99.90;;;;;;5033068;28;20396;-75
2022/11/03 01:31:38;;;;;;;0.20;0.20;;;7.90;99.90;;;;;;5015302;28;20029;-75
2022/11/03 01:34:04;;;;;;;0.20;0.20;;;7.80;99.90;;;;;;5033017;28;20029;-74
2022/11/03 01:36:29;;;;;;;0.20;0.20;;;7.90;99.90;;;;;;5015008;28;20100;-75
2022/11/03 01:38:56;;;;;;;0.43;0.43;;;7.90;99.90;;;;;;5032890;28;20034;-75
2022/11/03 01:41:27;;;;;;;0.20;0.20;;;8.00;99.90;;;;;;5033006;28;20029;-75
2022/11/03 01:44:07;;;;;;;0.20;0.20;;;8.20;99.90;;;;;;5033039;28;20034;-75
2022/11/03 01:46:47;;;;;;;1.48;1.38;;;8.40;99.90;;;;;;5014825;28;20053;-75
2022/11/03 01:49:34;;;;;;;0.20;0.20;;;8.60;99.90;;;;;;5015048;28;20022;-75
2022/11/03 01:52:04;;;;;;;0.20;0.20;;;8.50;99.90;;;;;;5015098;28;20026;-75
2022/11/03 01:54:30;;;;;;;0.20;0.20;;;8.20;99.90;;;;;;5014538;28;20026;-75
2022/11/03 01:56:57;;;;;;;0.20;0.20;;;8.20;99.90;;;;;;5032608;28;20025;-75
2022/11/03 01:59:24;;;;;;;0.20;0.20;;;8.40;99.90;;;;;;5032722;28;20036;-75
2022/11/03 02:01:50;;;;;;;0.10;0.10;;;8.60;99.90;;;;;;5014901;28;20025;-75
2022/11/03 02:04:26;;;;;;;0.20;0.20;;;8.80;99.90;;;;;;5014736;28;20036;-75
2022/11/03 02:07:01;;;;;;;0.28;0.28;;;8.70;99.90;;;;;;5032309;28;20109;-75
2022/11/03 02:09:28;;;;;;;0.20;0.20;;;8.80;99.90;;;;;;5014889;28;20097;-75
2022/11/03 02:12:06;;;;;;;0.57;0.57;;;8.80;99.90;;;;;;5014543;28;20547;-75
2022/11/03 02:14:34;;;;;;;0.20;0.20;;;8.50;99.90;;;;;;5014413;28;20030;-75
2022/11/03 02:17:04;;;;;;;0.40;0.40;;;8.40;99.90;;;;;;5032245;28;20097;-75
2022/11/03 02:19:34;;;;;;;2.25;0.75;;;8.40;99.90;;;;;;4998138;28;20059;-75
2022/11/03 02:22:25;;;;;;;0.20;0.20;;;8.40;99.90;;;;;;5014714;28;20291;-75
2022/11/03 02:25:17;;;;;;;0.50;0.50;;;8.40;99.90;;;;;;5014089;28;20138;-75
2022/11/03 02:27:43;;;;;;;0.20;0.20;;;8.20;99.90;;;;;;5006174;28;20029;-75
2022/11/03 02:30:10;;;;;;;0.20;0.20;;;8.30;99.90;;;;;;5032095;28;20021;-75
2022/11/03 02:32:56;;;;;;;0.82;0.82;;;8.20;99.90;;;;;;5014542;28;20029;-77
2022/11/03 02:35:32;;;;;;;1.85;1.75;;;8.10;99.90;;;;;;5031912;28;20567;-76
2022/11/03 02:38:01;;;;;;;0.35;0.35;;;8.10;99.90;;;;;;5014405;28;20032;-77
2022/11/03 02:40:34;;;;;;;0.10;0.10;;;8.00;99.90;;;;;;5014406;28;20040;-77
2022/11/03 02:43:02;;;;;;;0.30;0.30;;;8.00;99.90;;;;;;4998238;28;20030;-77
2022/11/03 02:45:28;;;;;;;0.20;0.20;;;8.10;99.90;;;;;;5014288;28;20524;-77
2022/11/03 02:47:57;;;;;;;0.20;0.20;;;8.20;99.90;;;;;;4998229;28;20025;-77
2022/11/03 02:50:31;;;;;;;0.22;0.22;;;8.30;99.90;;;;;;5032013;28;20045;-75
2022/11/03 02:52:57;;;;;;;0.55;0.55;;;8.40;99.90;;;;;;5031483;28;20472;-75
2022/11/03 02:55:28;;;;;;;0.20;0.20;;;8.40;99.90;;;;;;5013840;28;20167;-75
2022/11/03 02:57:58;;;;;;;0.20;0.20;;;8.30;99.90;;;;;;5014186;28;20039;-75
2022/11/03 03:00:24;;;;;;;0.47;0.47;;;8.30;99.90;;;;;;5014168;28;20060;-75
2022/11/03 03:02:58;;;;;;;0.20;0.20;;;8.40;99.90;;;;;;5014107;28;20052;-75
2022/11/03 03:05:28;;;;;;;0.20;0.20;;;8.30;99.90;;;;;;5013472;28;20029;-75
2022/11/03 03:08:00;;;;;;;0.20;0.20;;;8.30;99.90;;;;;;5000892;28;20021;-75
2022/11/03 03:10:32;;;;;;;1.10;1.10;;;8.40;99.90;;;;;;5018146;28;20018;-75
2022/11/03 03:12:59;;;;;;;0.20;0.20;;;8.50;99.90;;;;;;5018240;28;20681;-75
2022/11/03 03:16:00;;;;;;;0.10;0.10;;;8.50;99.90;;;;;;5035419;28;20397;-75
2022/11/03 03:18:50;;;;;;;0.20;0.20;;;8.60;99.90;;;;;;4996001;28;20068;-75
2022/11/03 03:21:23;;;;;;;0.10;0.10;;;8.20;99.90;;;;;;5035551;28;20037;-75
2022/11/03 03:24:17;;;;;;;0.20;0.20;;;7.80;99.90;;;;;;5035533;28;20029;-75
2022/11/03 03:26:48;;;;;;;2.45;2.35;;;7.80;99.90;;;;;;5017495;28;20108;-75
2022/11/03 03:29:17;;;;;;;0.20;0.20;;;7.60;99.90;;;;;;5001314;28;20129;-75
2022/11/03 03:31:50;;;;;;;0.20;0.20;;;7.70;99.90;;;;;;5001276;28;20026;-75
2022/11/03 03:34:18;;;;;;;0.20;0.20;;;7.80;99.90;;;;;;5017652;28;20171;-75
2022/11/03 03:36:47;;;;;;;0.10;0.10;;;7.70;99.90;;;;;;5017186;28;20104;-75
2022/11/03 03:39:15;;;;;;;0.65;0.65;;;7.60;99.90;;;;;;5035210;28;20044;-75
2022/11/03 03:41:43;;;;;;;0.82;0.82;;;7.50;99.90;;;;;;5017308;28;20036;-75
2022/11/03 03:44:10;;;;;;;0.15;0.15;;;7.30;99.90;;;;;;5017350;28;20029;-75
2022/11/03 03:46:43;;;;;;;0.20;0.20;;;7.30;99.90;;;;;;5016971;28;20025;-75
2022/11/03 03:49:09;;;;;;;5.28;2.20;;;7.40;99.90;;;;;;5001148;28;20033;-76
2022/11/03 03:51:36;;;;;;;0.40;0.40;;;7.50;99.90;;;;;;5001008;28;20022;-77
2022/11/03 03:54:02;;;;;;;0.20;0.20;;;7.50;99.90;;;;;;5034927;28;20366;-77
2022/11/03 03:56:43;;;;;;;0.20;0.20;;;7.50;99.90;;;;;;5034766;28;20036;-77
2022/11/03 03:59:09;;;;;;;0.10;0.10;;;7.50;99.90;;;;;;5001017;28;20025;-75
2022/11/03 04:01:34;;;;;;;0.20;0.20;;;7.40;99.90;;;;;;5017217;28;21019;-75
2022/11/03 04:04:00;;;;;;;0.22;0.22;;;7.50;99.90;;;;;;5016950;28;20103;-75
2022/11/03 04:06:26;;;;;;;0.20;0.20;;;7.60;99.90;;;;;;5000065;28;20069;-75
2022/11/03 04:08:51;;;;;;;0.77;0.77;;;7.70;99.90;;;;;;5016961;28;20056;-75
2022/11/03 04:22:17;;;;;;;0.20;0.20;;;7.90;99.90;;;;;;5016756;28;20018;-76
2022/11/03 04:24:50;;;;;;;0.13;0.13;;;7.90;99.90;;;;;;5000171;28;20032;-76
2022/11/03 04:27:25;;;;;;;0.20;0.20;;;7.90;99.90;;;;;;5016534;28;20030;-76
2022/11/03 04:29:54;;;;;;;1.13;1.10;;;7.90;99.90;;;;;;5034463;28;20037;-77
2022/11/03 04:32:20;;;;;;;0.30;0.30;;;7.90;99.90;;;;;;5034422;28;20380;-77
2022/11/03 04:34:47;;;;;;;0.22;0.22;;;7.70;99.90;;;;;;5016378;28;20075;-76
2022/11/03 04:37:14;;;;;;;0.20;0.20;;;7.70;99.90;;;;;;5034269;28;20068;-77
2022/11/03 04:39:40;;;;;;;0.17;0.17;;;7.60;99.90;;;;;;5034142;28;20025;-76
2022/11/03 04:42:19;;;;;;;0.20;0.20;;;7.60;99.90;;;;;;5034117;28;20378;-76
2022/11/03 04:44:47;;;;;;;3.95;1.05;;;7.70;99.90;;;;;;5016134;28;20116;-76
2022/11/03 04:47:16;;;;;;;1.20;1.10;;;7.60;99.90;;;;;;5016271;28;20469;-76
2022/11/03 04:49:42;;;;;;;0.20;0.20;;;7.40;99.90;;;;;;5033957;28;20021;-76
2022/11/03 04:52:15;;;;;;;0.85;0.85;;;7.20;99.90;;;;;;5033991;28;20376;-76
2022/11/03 04:54:41;;;;;;;0.57;0.57;;;6.80;99.90;;;;;;5016387;28;20071;-76
2022/11/03 04:57:13;;;;;;;0.40;0.40;;;7.00;99.90;;;;;;5033831;28;20127;-76
2022/11/03 04:59:40;;;;;;;0.20;0.20;;;6.80;99.90;;;;;;5015930;28;20025;-76
2022/11/03 05:02:13;;;;;;;0.22;0.22;;;6.70;99.90;;;;;;5016024;28;20030;-76
2022/11/03 05:04:38;;;;;;;0.47;0.47;;;6.90;99.90;;;;;;5033521;28;20021;-76
2022/11/03 05:07:22;;;;;;;0.20;0.20;;;7.00;99.90;;;;;;5033509;28;20028;-76
2022/11/03 05:09:48;;;;;;;0.20;0.20;;;7.10;99.90;;;;;;5016152;28;20079;-76
2022/11/03 05:12:15;;;;;;;0.20;0.20;;;7.20;99.90;;;;;;5015912;28;20088;-76
2022/11/03 05:14:40;;;;;;;0.60;0.60;;;7.30;99.90;;;;;;5015658;28;20045;-76
2022/11/03 05:17:25;;;;;;;0.20;0.20;;;7.20;99.90;;;;;;5033383;28;20063;-76
2022/11/03 05:20:02;;;;;;;0.95;0.95;;;7.40;99.90;;;;;;4999457;28;20036;-76
2022/11/03 05:22:35;;;;;;;0.63;0.63;;;7.30;99.90;;;;;;5016081;28;20025;-76
2022/11/03 05:25:22;;;;;;;2.45;1.38;;;6.90;99.90;;;;;;5032796;28;20205;-76
2022/11/03 05:27:48;;;;;;;0.20;0.20;;;6.70;99.90;;;;;;4998622;28;20717;-76
2022/11/03 05:30:14;;;;;;;0.60;0.60;;;6.60;99.90;;;;;;5014852;28;20053;-76
2022/11/03 05:32:40;;;;;;;0.20;0.20;;;6.60;99.90;;;;;;5015504;28;20381;-76
2022/11/03 05:35:20;;;;;;;3.03;2.83;;;6.60;99.90;;;;;;5014962;28;20075;-76
2022/11/03 05:37:46;;;;;;;0.30;0.30;;;6.50;99.90;;;;;;5015164;28;20033;-76
2022/11/03 05:40:22;;;;;;;0.20;0.20;;;6.50;99.90;;;;;;5015133;28;20030;-76
2022/11/03 05:43:12;;;;;;;0.63;0.52;;;6.60;99.90;;;;;;5015345;28;20060;-77
2022/11/03 05:45:38;;;;;;;0.30;0.30;;;6.50;99.90;;;;;;5022685;28;20047;-76
2022/11/03 05:48:32;;;;;;;0.20;0.20;;;6.60;99.90;;;;;;5032939;28;20096;-76
2022/11/03 05:50:59;;;;;;;0.28;0.28;;;6.70;99.90;;;;;;5015152;28;20219;-76
2022/11/03 05:53:29;;;;;;;0.20;0.20;;;6.80;99.90;;;;;;5015102;28;20512;-76
2022/11/03 05:55:57;;;;;;;0.30;0.30;;;6.90;99.90;;;;;;5014981;28;20053;-76
2022/11/03 05:58:30;;;;;;;0.20;0.20;;;6.80;99.90;;;;;;5032595;28;20623;-76
2022/11/03 06:00:57;;;;;;;0.13;0.13;;;6.80;99.90;;;;;;4998442;28;20033;-76
2022/11/03 06:03:26;;;;;;;0.13;0.13;;;7.00;99.90;;;;;;5014893;28;20425;-76
2022/11/03 06:05:53;;;;;;;0.35;0.35;;;6.90;99.90;;;;;;5031992;28;20030;-76
2022/11/03 06:08:22;;;;;;;0.25;0.25;;;7.00;99.90;;;;;;5014679;28;20665;-76
2022/11/03 06:10:54;;;;;;;0.75;0.75;;;7.00;99.90;;;;;;5014657;28;20071;-76
2022/11/03 06:13:24;;;;;;;0.20;0.20;;;6.90;99.90;;;;;;4998140;28;20056;-76
2022/11/03 06:15:56;;;;;;;0.22;0.22;;;6.90;99.90;;;;;;4998174;28;20055;-77
2022/11/03 06:18:28;;;;;;;0.20;0.20;;;6.90;99.90;;;;;;5014631;28;20033;-76
2022/11/03 06:20:58;;;;;;;0.20;0.20;;;7.00;99.90;;;;;;5014619;28;20039;-76
2022/11/03 06:23:24;;;;;;;0.20;0.20;;;7.00;99.90;;;;;;5014524;28;20059;-76
2022/11/03 06:25:52;;;;;;;0.50;0.50;;;7.20;99.90;;;;;;5031929;28;20057;-76
2022/11/03 06:28:29;;;;;;;0.20;0.20;;;7.30;99.90;;;;;;5014400;28;20120;-76
2022/11/03 06:30:55;;;;;;;0.20;0.20;;;7.40;99.90;;;;;;5032296;28;20021;-76
2022/11/03 06:33:27;;;;;;;0.20;0.20;;;7.30;99.90;;;;;;5032155;28;20018;-76
2022/11/03 06:36:02;;;;;;;0.70;0.70;;;7.30;99.90;;;;;;5032038;28;20076;-77
2022/11/03 06:38:30;;;;;;;0.32;0.32;;;7.40;99.90;;;;;;5015314;28;20029;-76
2022/11/03 06:40:57;;;;;;;0.40;0.40;;;7.50;99.90;;;;;;5031787;28;20120;-77
2022/11/03 06:43:27;;;;;;;0.25;0.25;;;7.30;99.90;;;;;;5031818;28;20384;-77
2022/11/03 06:46:04;;;;;;;0.45;0.45;;;7.20;99.90;;;;;;5013841;28;20025;-77
2022/11/03 06:48:33;;;;;;;0.22;0.20;;;7.20;99.90;;;;;;5014415;28;20080;-77
2022/11/03 06:51:00;;;;;;;0.20;0.20;;;7.20;99.90;;;;;;4998013;28;20035;-77
2022/11/03 06:53:30;;;;;;;0.20;0.20;;;7.20;99.90;;;;;;5031096;28;20043;-76
2022/11/03 06:55:57;;;;;;;0.20;0.20;;;7.50;99.90;;;;;;5013955;28;20088;-76
2022/11/03 06:58:26;;;;;;;0.30;0.30;;;7.70;99.90;;;;;;5014409;28;20025;-77
2022/11/03 07:00:54;;;;;;;0.85;0.85;;;7.70;99.90;;;;;;5031503;28;20040;-76
2022/11/03 07:03:29;;;;;;;0.50;0.50;;;7.70;99.90;;;;;;4997702;28;20025;-76
2022/11/03 07:06:02;;;;;;;0.93;0.93;;;7.60;99.90;;;;;;5013767;28;20037;-76
2022/11/03 07:08:36;;;;;;;0.70;0.70;;;7.70;99.90;;;;;;5024227;28;20493;-77
2022/11/03 07:11:17;;;;;;;0.20;0.20;;;7.80;99.90;;;;;;5022367;28;20020;-76
2022/11/03 07:13:44;;;;;;;0.20;0.20;;;7.90;99.90;;;;;;5014352;28;20021;-76
2022/11/03 07:16:35;;;;;;;0.20;0.20;;;8.20;99.90;;;;;;5010701;28;20021;-76
2022/11/03 07:19:05;;;;;;;0.20;0.20;;;8.40;99.90;;;;;;5033785;28;20502;-76
2022/11/03 07:21:44;;;;;;;0.20;0.20;;;8.60;99.90;;;;;;5034011;28;20033;-77
2022/11/03 07:24:30;;;;;;;0.20;0.20;;;8.70;99.90;;;;;;5008595;28;20501;-76
2022/11/03 07:27:11;;;;;;;0.30;0.30;;;8.90;99.90;;;;;;5032125;28;20068;-77
2022/11/03 07:29:37;;;;;;;0.30;0.30;;;9.10;99.90;;;;;;5010996;28;20029;-77
2022/11/03 07:32:20;;;;;;;0.30;0.30;;;9.10;99.90;;;;;;5002916;28;20030;-77
2022/11/03 07:34:50;;;;;;;0.30;0.30;;;9.10;99.90;;;;;;5008257;28;20034;-77
2022/11/03 07:37:20;;;;;;;0.57;0.57;;;8.90;99.90;;;;;;4996982;28;20425;-77
2022/11/03 07:39:46;;;;;;;0.20;0.20;;;8.80;99.90;;;;;;4995822;28;20033;-76
2022/11/03 07:42:18;;;;;;;0.20;0.20;;;8.70;99.90;;;;;;5029358;28;20097;-76
2022/11/03 07:44:45;;;;;;;0.20;0.20;;;8.70;99.90;;;;;;5011190;28;20028;-76
2022/11/03 07:47:18;;;;;;;0.20;0.20;;;8.80;99.90;;;;;;5028905;28;20405;-77
2022/11/03 07:49:45;;;;;;;0.10;0.10;;;8.90;99.90;;;;;;5009957;28;20079;-77
2022/11/03 07:52:15;;;;;;;0.20;0.20;;;9.00;99.90;;;;;;4989278;28;20602;-77
2022/11/03 07:54:40;;;;;;;0.20;0.20;;;9.00;99.90;;;;;;4995984;28;20076;-76
2022/11/03 07:57:13;;;;;;;0.20;0.20;;;9.20;99.90;;;;;;5012979;28;20104;-76
2022/11/03 07:59:42;;;;;;;1.10;1.10;;;9.30;99.90;;;;;;4993944;28;20033;-76
2022/11/03 08:02:31;;;;;;;0.13;0.13;;;9.40;99.90;;;;;;5013783;28;20041;-78
2022/11/03 08:04:58;;;;;;;0.28;0.28;;;9.70;99.90;;;;;;5013236;28;20728;-76
2022/11/03 08:07:24;;;;;;;0.20;0.20;;;9.80;99.90;;;;;;5019591;28;20025;-76
2022/11/03 08:09:51;;;;;;;0.10;0.10;;;9.80;99.90;;;;;;5020685;28;20112;-75
2022/11/03 08:12:17;;;;;;;0.10;0.10;;;10.00;99.90;;;;;;5020933;28;20153;-77
2022/11/03 08:14:43;;;;;;;0.20;0.20;;;10.10;99.90;;;;;;5010937;28;20871;-75
2022/11/03 08:17:08;;;;;;;0.20;0.20;;;10.30;99.90;;;;;;5012929;28;20133;-77
2022/11/03 08:19:34;;;;;;;0.17;0.17;;;10.50;99.90;;;;;;4994963;28;20120;-76
2022/11/03 08:22:00;;;;;;;0.20;0.20;;;10.70;99.90;;;;;;5012709;28;20030;-76
2022/11/03 08:24:26;;;;;;;0.13;0.13;;;10.70;99.90;;;;;;5012293;28;20037;-75
2022/11/03 08:26:51;;;;;;;0.20;0.20;;;10.70;99.90;;;;;;5021793;28;21000;-76
2022/11/03 08:29:17;;;;;;;0.10;0.10;;;10.80;99.90;;;;;;5023641;28;20085;-78
2022/11/03 08:31:43;;;;;;;0.20;0.20;;;10.80;99.90;;;;;;5022123;28;21608;-77
2022/11/03 08:34:10;;;;;;;0.10;0.10;;;11.00;99.90;;;;;;5021594;28;20029;-78
2022/11/03 08:36:36;;;;;;;0.10;0.10;;;11.20;99.90;;;;;;5021032;28;20488;-75
2022/11/03 08:39:03;;;;;;;0.20;0.20;;;11.30;99.90;;;;;;5010833;28;20040;-76
2022/11/03 08:41:30;;;;;;;0.10;0.10;;;11.30;99.90;;;;;;5021512;28;20044;-76
2022/11/03 08:43:56;;;;;;;0.10;0.10;;;11.30;99.90;;;;;;4993094;28;20120;-75
2022/11/03 08:46:22;;;;;;;0.20;0.20;;;11.50;99.90;;;;;;5021148;28;20044;-74
2022/11/03 08:48:47;;;;;;;0.20;0.20;;;11.60;99.90;;;;;;5020327;28;20032;-75
2022/11/03 08:51:14;;;;;;;0.20;0.20;;;11.70;99.90;;;;;;5021132;28;20034;-78
2022/11/03 08:53:43;;;;;;;0.20;0.20;;;11.80;99.90;;;;;;5012830;28;20492;-79
2022/11/03 08:56:12;;;;;;;0.10;0.10;;;11.90;99.90;;;;;;5011648;28;20025;-78
2022/11/03 08:58:37;;;;;;;0.17;0.17;;;12.00;99.90;;;;;;4996435;28;20047;-77
2022/11/03 09:01:03;;;;;;;0.20;0.20;;;12.00;99.90;;;;;;5012183;28;20055;-78
2022/11/03 09:03:29;;;;;;;0.13;0.13;;;12.10;99.90;;;;;;5025633;28;20120;-77
2022/11/03 09:05:55;;;;;;;0.20;0.20;;;12.10;99.90;;;;;;5013883;28;20033;-77
2022/11/03 09:08:20;;;;;;;0.10;0.10;;;12.20;99.90;;;;;;5023965;28;20048;-77
2022/11/03 09:10:46;;;;;;;0.10;0.10;;;12.30;99.90;;;;;;5026476;28;20025;-78
2022/11/03 09:13:12;;;;;;;0.20;0.20;;;12.40;99.90;;;;;;5022645;28;20036;-76
2022/11/03 09:15:37;;;;;;;0.10;0.10;;;12.50;99.90;;;;;;5021730;28;20041;-79
2022/11/03 09:18:03;;;;;;;0.10;0.10;;;12.60;99.90;;;;;;5012631;28;20065;-76
2022/11/03 09:20:30;;;;;;;0.10;0.10;;;12.70;99.90;;;;;;5021261;28;20148;-78
2022/11/03 09:22:56;;;;;;;0.15;0.15;;;12.90;99.90;;;;;;5010920;28;20091;-78
2022/11/03 09:25:21;;;;;;;0.10;0.10;;;13.20;99.90;;;;;;5009322;28;20029;-77
2022/11/03 09:27:47;;;;;;;0.30;0.30;;;13.40;99.90;;;;;;5023262;28;20064;-77
2022/11/03 09:30:13;;;;;;;0.10;0.10;;;13.60;99.90;;;;;;5013507;28;20443;-77
2022/11/03 09:32:39;;;;;;;5.57;3.60;;;14.10;99.90;;;;;;5022620;28;20025;-77
2022/11/03 09:35:07;;;;;;;0.20;0.20;;;14.30;99.90;;;;;;5011549;28;20045;-77
2022/11/03 09:37:33;;;;;;;0.17;0.17;;;14.60;99.90;;;;;;5012431;28;20040;-78
2022/11/03 09:39:58;;;;;;;1.23;1.13;;;15.20;99.90;;;;;;5013830;28;20034;-77
2022/11/03 09:42:25;;;;;;;0.20;0.20;;;15.60;99.90;;;;;;5022884;28;20037;-78
2022/11/03 09:44:52;;;;;;;0.20;0.20;;;16.00;99.90;;;;;;5021916;28;20033;-77
2022/11/03 09:47:34;;;;;;;0.10;0.10;;;16.30;99.90;;;;;;4996835;28;20437;-77
2022/11/03 09:50:01;;;;;;;0.10;0.10;;;17.00;99.90;;;;;;5009991;28;20041;-77
2022/11/03 09:52:27;;;;;;;0.00;0.00;;;17.80;99.90;;;;;;5022491;28;20064;-77
2022/11/03 09:54:54;;;;;;;0.10;0.10;;;18.40;99.90;;;;;;5021172;28;20040;-77
2022/11/03 09:57:20;;;;;;;0.00;0.00;;;18.70;99.90;;;;;;5022663;28;20075;-77
2022/11/03 09:59:48;;;;;;;0.10;0.10;;;18.70;99.90;;;;;;5022205;28;20044;-77
2022/11/03 10:02:29;;;;;;;0.20;0.20;;;18.70;99.90;;;;;;5022319;28;20512;-77
2022/11/03 10:04:57;;;;;;;0.10;0.10;;;18.70;99.90;;;;;;5022102;28;20670;-77
2022/11/03 10:07:25;;;;;;;0.28;0.28;;;19.00;98.60;;;;;;5011360;28;20044;-77
2022/11/03 10:09:53;;;;;;;0.22;0.22;;;19.00;96.80;;;;;;5013308;28;20025;-77
2022/11/03 10:12:22;;;;;;;0.10;0.10;;;18.90;96.60;;;;;;5012145;28;20033;-77
2022/11/03 10:14:48;;;;;;;0.10;0.10;;;18.90;96.00;;;;;;5011072;28;20053;-77
2022/11/03 10:17:28;;;;;;;0.00;0.00;;;19.20;95.70;;;;;;4994825;28;20119;-77
2022/11/03 10:19:55;;;;;;;0.00;0.00;;;19.30;95.60;;;;;;5012657;28;20068;-77
2022/11/03 10:22:21;;;;;;;0.10;0.10;;;19.80;95.00;;;;;;5010434;28;20025;-77
2022/11/03 10:24:48;;;;;;;0.00;0.00;;;20.30;93.60;;;;;;5021148;28;20789;-77
2022/11/03 10:27:24;;;;;;;0.10;0.10;;;20.60;93.20;;;;;;5020937;28;20021;-77
2022/11/03 10:30:11;;;;;;;0.43;0.43;;;21.00;91.80;;;;;;5021982;28;20041;-77
2022/11/03 10:32:37;;;;;;;0.57;0.50;;;20.90;90.70;;;;;;5012902;28;20022;-77
2022/11/03 10:35:33;;;;;;;0.00;0.00;;;20.70;90.60;;;;;;5010062;28;20423;-77
2022/11/03 10:38:32;;;;;;;0.43;0.43;;;20.40;90.80;;;;;;4994032;28;20037;-78
2022/11/03 10:41:18;;;;;;;0.10;0.10;;;20.50;90.10;;;;;;4950160;28;20471;-77
2022/11/03 10:44:01;;;;;;;0.00;0.00;;;20.80;90.10;;;;;;5020096;28;20096;-77
2022/11/03 10:46:27;;;;;;;0.20;0.20;;;21.30;86.60;;;;;;4992717;28;20048;-77
2022/11/03 10:49:14;;;;;;;0.00;0.00;;;21.80;84.70;;;;;;4993341;28;20029;-77
2022/11/03 10:51:47;;;;;;;0.10;0.10;;;22.00;81.80;;;;;;5019550;28;20037;-77
2022/11/03 10:54:18;;;;;;;0.03;0.03;;;22.20;80.20;;;;;;5009315;28;20117;-77
2022/11/03 10:56:45;;;;;;;1.00;0.55;;;22.20;80.00;;;;;;5018812;28;20623;-77
2022/11/03 10:59:30;;;;;;;0.00;0.00;;;22.20;78.80;;;;;;5010799;28;20060;-79
2022/11/03 11:01:57;;;;;;;1.17;0.32;;;22.00;79.40;;;;;;5019387;28;21255;-76
2022/11/03 11:04:23;;;;;;;0.15;0.15;;;21.80;79.20;;;;;;5020126;28;20122;-76
2022/11/03 11:06:49;;;;;;;0.08;0.08;;;22.00;79.70;;;;;;5018356;28;20148;-76
2022/11/03 11:09:21;;;;;;;0.00;0.00;;;22.70;77.70;;;;;;4992890;28;20034;-76
2022/11/03 11:12:05;;;;;;;0.77;0.65;;;23.20;75.80;;;;;;5019291;28;20072;-76
2022/11/03 11:14:36;;;;;;;0.35;0.20;;;22.90;76.20;;;;;;5008215;28;20030;-77
2022/11/03 11:17:04;;;;;;;0.10;0.10;;;22.30;78.40;;;;;;5009661;28;20049;-77
2022/11/03 11:20:08;;;;;;;0.47;0.47;;;22.60;77.70;;;;;;5020905;28;20033;-76
2022/11/03 11:22:34;;;;;;;0.00;0.00;;;23.00;76.00;;;;;;5008757;28;20477;-77
2022/11/03 11:25:01;;;;;;;0.10;0.10;;;22.60;76.40;;;;;;5008134;28;20040;-76
2022/11/03 11:27:42;;;;;;;0.10;0.10;;;22.10;77.10;;;;;;5010583;28;20032;-79
2022/11/03 11:30:20;;;;;;;0.75;0.38;;;21.70;78.30;;;;;;5023149;28;20029;-76
2022/11/03 11:32:47;;;;;;;0.10;0.10;;;21.20;80.30;;;;;;5023578;28;20037;-76
2022/11/03 11:35:37;;;;;;;0.08;0.08;;;21.20;80.70;;;;;;5012392;28;20029;-76
2022/11/03 11:38:41;;;;;;;0.10;0.10;;;21.70;79.00;;;;;;4996418;28;20037;-76
2022/11/03 11:41:06;;;;;;;0.05;0.05;;;21.60;78.90;;;;;;5015153;28;20037;-76
2022/11/03 11:43:32;;;;;;;0.00;0.00;;;21.70;78.60;;;;;;4996344;28;20040;-78
2022/11/03 11:46:23;;;;;;;1.35;0.65;;;21.40;75.10;;;;;;5012958;28;20619;-76
2022/11/03 11:49:14;;;;;;;0.15;0.15;;;21.60;76.10;;;;;;5013451;28;20033;-76
2022/11/03 11:51:40;;;;;;;0.03;0.03;;;21.90;73.50;;;;;;5013861;28;20028;-78
2022/11/03 11:54:07;;;;;;;0.52;0.52;;;22.20;72.10;;;;;;5023015;28;20037;-77
2022/11/03 11:56:39;;;;;;;0.10;0.10;;;22.60;72.40;;;;;;5022669;28;20039;-77
2022/11/03 11:59:16;;;;;;;0.00;0.00;;;22.60;70.40;;;;;;5023325;28;20556;-77
2022/11/03 12:01:42;;;;;;;0.00;0.00;;;22.70;67.70;;;;;;4994614;28;20057;-76
2022/11/03 12:04:35;;;;;;;0.00;0.00;;;22.80;69.10;;;;;;5012872;28;20500;-76
2022/11/03 12:07:01;;;;;;;0.00;0.00;;;22.90;70.20;;;;;;5018843;28;20076;-76
2022/11/03 12:09:27;;;;;;;0.00;0.00;;;22.70;71.90;;;;;;4995247;28;20033;-76
2022/11/03 12:11:58;;;;;;;1.83;1.52;;;22.30;72.20;;;;;;4996851;28;20034;-77
2022/11/03 12:14:27;;;;;;;0.10;0.10;;;22.20;73.20;;;;;;5011968;28;20052;-77
2022/11/03 12:16:57;;;;;;;0.10;0.10;;;21.40;75.90;;;;;;5011110;28;20080;-77
2022/11/03 12:19:37;;;;;;;0.00;0.00;;;21.60;75.10;;;;;;5013847;28;20082;-76
2022/11/03 12:22:24;;;;;;;0.10;0.10;;;21.90;74.60;;;;;;5012936;28;20021;-77
2022/11/03 12:25:00;;;;;;;0.08;0.08;;;21.90;76.00;;;;;;4999350;28;20049;-77
2022/11/03 12:27:25;;;;;;;0.10;0.10;;;21.80;75.40;;;;;;5011319;28;20036;-77
2022/11/03 12:29:53;;;;;;;0.00;0.00;;;21.80;76.60;;;;;;5011799;28;20033;-77
2022/11/03 12:32:18;;;;;;;0.00;0.00;;;21.70;77.90;;;;;;4995762;28;20049;-77
2022/11/03 12:34:44;;;;;;;0.10;0.10;;;21.80;77.10;;;;;;5011441;28;20084;-77
2022/11/03 12:37:10;;;;;;;0.00;0.00;;;21.30;78.80;;;;;;5012332;28;20033;-77
2022/11/03 12:39:37;;;;;;;0.00;0.00;;;21.40;79.70;;;;;;5010882;28;20033;-77
2022/11/03 12:42:03;;;;;;;0.52;0.52;;;21.50;79.80;;;;;;5022272;28;20610;-77
2022/11/03 12:44:29;;;;;;;0.30;0.30;;;21.40;80.90;;;;;;5021936;28;20087;-78
2022/11/03 12:46:54;;;;;;;0.00;0.00;;;21.30;81.80;;;;;;5012634;28;20037;-78
2022/11/03 12:49:20;;;;;;;0.00;0.00;;;21.00;82.90;;;;;;5021839;28;20108;-77
2022/11/03 12:51:46;;;;;;;0.00;0.00;;;21.00;83.30;;;;;;5021590;28;20029;-78
2022/11/03 12:54:12;;;;;;;0.00;0.00;;;20.80;83.60;;;;;;5021402;28;20044;-77
2022/11/03 12:56:38;;;;;;;0.05;0.05;;;20.50;84.50;;;;;;5013572;28;20030;-77
2022/11/03 12:59:03;;;;;;;0.30;0.30;;;20.00;85.90;;;;;;5010054;28;20543;-77
2022/11/03 13:01:29;;;;;;;0.10;0.10;;;19.60;87.00;;;;;;5022479;28;20022;-77
2022/11/03 13:03:55;;;;;;;0.10;0.10;;;19.40;88.20;;;;;;5021342;28;20588;-76
2022/11/03 13:06:20;;;;;;;0.00;0.00;;;19.20;90.00;;;;;;5022253;28;20048;-78
2022/11/03 13:08:48;;;;;;;0.20;0.20;;;19.10;90.40;;;;;;5022729;28;20029;-78
2022/11/03 13:13:58;;;;;;;0.10;0.10;;;18.90;91.30;;;;;;5021977;28;20034;-75
2022/11/03 13:16:24;;;;;;;0.10;0.10;;;18.80;91.00;;;;;;5021248;28;20397;-77
2022/11/03 13:18:49;;;;;;;0.30;0.30;;;18.70;91.60;;;;;;5011706;28;20029;-76
2022/11/03 13:21:15;;;;;;;0.10;0.10;;;18.70;91.80;;;;;;5023806;28;20037;-76
2022/11/03 13:23:41;;;;;;;0.10;0.10;;;18.60;92.40;;;;;;5013938;28;20034;-76
2022/11/03 13:26:07;;;;;;;0.00;0.00;;;18.40;93.00;;;;;;5014304;28;20189;-76
2022/11/03 13:28:33;;;;;;;0.00;0.00;;;18.30;93.30;;;;;;5015292;28;20032;-75